sensor_id;sensor_type;location;lat;lon;timestamp;P1;durP1;ratioP1;P2;durP2;ratioP2
13222;SDS011;6676;45.192;5.722;2023-07-28T00:02:23;1.60;;;1.02;;
13222;SDS011;6676;45.192;5.722;2023-07-28T00:05:15;1.62;;;1.00;;
13222;SDS011;6676;45.192;5.722;2023-07-28T00:08:06;2.02;;;1.10;;
13222;SDS011;6676;45.192;5.722;2023-07-28T00:10:58;2.50;;;0.88;;
13222;SDS011;6676;45.192;5.722;2023-07-28T00:13:49;2.47;;;1.17;;
13222;SDS011;6676;45.192;5.722;2023-07-28T00:16:40;4.05;;;1.30;;
13222;SDS011;6676;45.192;5.722;2023-07-28T00:19:32;1.62;;;1.30;;
13222;SDS011;6676;45.192;5.722;2023-07-28T00:22:23;1.20;;;1.00;;
13222;SDS011;6676;45.192;5.722;2023-07-28T00:25:15;2.15;;;1.22;;
13222;SDS011;6676;45.192;5.722;2023-07-28T00:28:06;2.77;;;1.40;;
13222;SDS011;6676;45.192;5.722;2023-07-28T00:30:58;2.08;;;1.20;;
13222;SDS011;6676;45.192;5.722;2023-07-28T00:33:50;1.35;;;1.20;;
13222;SDS011;6676;45.192;5.722;2023-07-28T00:36:43;1.80;;;1.27;;
13222;SDS011;6676;45.192;5.722;2023-07-28T00:39:34;2.98;;;1.27;;
13222;SDS011;6676;45.192;5.722;2023-07-28T00:42:26;2.95;;;1.17;;
13222;SDS011;6676;45.192;5.722;2023-07-28T00:45:17;2.90;;;1.40;;
13222;SDS011;6676;45.192;5.722;2023-07-28T00:48:10;1.17;;;1.00;;
13222;SDS011;6676;45.192;5.722;2023-07-28T00:51:04;1.42;;;1.00;;
13222;SDS011;6676;45.192;5.722;2023-07-28T00:53:55;2.72;;;1.12;;
13222;SDS011;6676;45.192;5.722;2023-07-28T00:56:48;3.47;;;1.00;;
13222;SDS011;6676;45.192;5.722;2023-07-28T00:59:39;2.20;;;1.17;;
13222;SDS011;6676;45.192;5.722;2023-07-28T01:02:31;3.72;;;1.15;;
13222;SDS011;6676;45.192;5.722;2023-07-28T01:05:24;1.95;;;1.10;;
13222;SDS011;6676;45.192;5.722;2023-07-28T01:08:19;2.33;;;1.20;;
13222;SDS011;6676;45.192;5.722;2023-07-28T01:11:11;3.60;;;1.10;;
13222;SDS011;6676;45.192;5.722;2023-07-28T01:14:03;2.60;;;1.20;;
13222;SDS011;6676;45.192;5.722;2023-07-28T01:16:54;2.50;;;1.02;;
13222;SDS011;6676;45.192;5.722;2023-07-28T01:19:46;2.17;;;1.00;;
13222;SDS011;6676;45.192;5.722;2023-07-28T01:22:51;1.92;;;1.07;;
13222;SDS011;6676;45.192;5.722;2023-07-28T01:25:55;1.45;;;1.00;;
13222;SDS011;6676;45.192;5.722;2023-07-28T01:28:47;1.35;;;1.10;;
13222;SDS011;6676;45.192;5.722;2023-07-28T01:31:39;1.75;;;1.00;;
13222;SDS011;6676;45.192;5.722;2023-07-28T01:34:31;3.08;;;1.10;;
13222;SDS011;6676;45.192;5.722;2023-07-28T01:37:23;4.70;;;1.00;;
13222;SDS011;6676;45.192;5.722;2023-07-28T01:40:14;1.77;;;0.85;;
13222;SDS011;6676;45.192;5.722;2023-07-28T01:43:06;2.05;;;0.90;;
13222;SDS011;6676;45.192;5.722;2023-07-28T01:45:58;2.65;;;1.20;;
13222;SDS011;6676;45.192;5.722;2023-07-28T01:48:51;3.02;;;1.10;;
13222;SDS011;6676;45.192;5.722;2023-07-28T01:51:42;1.52;;;1.17;;
13222;SDS011;6676;45.192;5.722;2023-07-28T01:54:34;2.80;;;1.20;;
13222;SDS011;6676;45.192;5.722;2023-07-28T01:57:26;3.62;;;1.05;;
13222;SDS011;6676;45.192;5.722;2023-07-28T02:00:18;1.95;;;1.10;;
13222;SDS011;6676;45.192;5.722;2023-07-28T02:03:09;7.30;;;1.30;;
13222;SDS011;6676;45.192;5.722;2023-07-28T02:06:02;1.30;;;1.00;;
13222;SDS011;6676;45.192;5.722;2023-07-28T02:08:53;1.25;;;0.75;;
13222;SDS011;6676;45.192;5.722;2023-07-28T02:11:45;2.37;;;1.10;;
13222;SDS011;6676;45.192;5.722;2023-07-28T02:14:36;1.00;;;0.85;;
13222;SDS011;6676;45.192;5.722;2023-07-28T02:17:28;1.75;;;1.10;;
13222;SDS011;6676;45.192;5.722;2023-07-28T02:20:19;2.60;;;1.20;;
13222;SDS011;6676;45.192;5.722;2023-07-28T02:23:11;5.45;;;1.30;;
13222;SDS011;6676;45.192;5.722;2023-07-28T02:26:03;1.37;;;1.27;;
13222;SDS011;6676;45.192;5.722;2023-07-28T02:28:54;2.35;;;1.05;;
13222;SDS011;6676;45.192;5.722;2023-07-28T02:31:46;2.37;;;1.02;;
13222;SDS011;6676;45.192;5.722;2023-07-28T02:34:37;2.80;;;1.15;;
13222;SDS011;6676;45.192;5.722;2023-07-28T02:37:29;1.20;;;1.05;;
13222;SDS011;6676;45.192;5.722;2023-07-28T02:40:20;6.00;;;1.62;;
13222;SDS011;6676;45.192;5.722;2023-07-28T02:43:13;2.47;;;1.20;;
13222;SDS011;6676;45.192;5.722;2023-07-28T02:46:05;3.05;;;1.32;;
13222;SDS011;6676;45.192;5.722;2023-07-28T02:48:56;2.98;;;1.32;;
13222;SDS011;6676;45.192;5.722;2023-07-28T02:51:48;2.17;;;1.10;;
13222;SDS011;6676;45.192;5.722;2023-07-28T02:54:39;3.22;;;1.20;;
13222;SDS011;6676;45.192;5.722;2023-07-28T02:57:31;4.10;;;1.17;;
13222;SDS011;6676;45.192;5.722;2023-07-28T03:00:22;2.77;;;1.10;;
13222;SDS011;6676;45.192;5.722;2023-07-28T03:03:14;2.42;;;1.10;;
13222;SDS011;6676;45.192;5.722;2023-07-28T03:06:05;2.85;;;1.40;;
13222;SDS011;6676;45.192;5.722;2023-07-28T03:08:58;4.37;;;1.50;;
13222;SDS011;6676;45.192;5.722;2023-07-28T03:11:54;2.83;;;1.40;;
13222;SDS011;6676;45.192;5.722;2023-07-28T03:14:46;2.65;;;1.32;;
13222;SDS011;6676;45.192;5.722;2023-07-28T03:17:38;2.55;;;1.20;;
13222;SDS011;6676;45.192;5.722;2023-07-28T03:20:30;3.17;;;1.22;;
13222;SDS011;6676;45.192;5.722;2023-07-28T03:23:21;2.70;;;1.52;;
13222;SDS011;6676;45.192;5.722;2023-07-28T03:26:13;2.85;;;1.40;;
13222;SDS011;6676;45.192;5.722;2023-07-28T03:29:05;4.17;;;1.40;;
13222;SDS011;6676;45.192;5.722;2023-07-28T03:31:56;2.30;;;1.50;;
13222;SDS011;6676;45.192;5.722;2023-07-28T03:34:48;2.15;;;1.30;;
13222;SDS011;6676;45.192;5.722;2023-07-28T03:37:40;1.92;;;1.52;;
13222;SDS011;6676;45.192;5.722;2023-07-28T03:40:32;2.60;;;1.42;;
13222;SDS011;6676;45.192;5.722;2023-07-28T03:43:23;1.90;;;1.22;;
13222;SDS011;6676;45.192;5.722;2023-07-28T03:46:15;2.27;;;1.52;;
13222;SDS011;6676;45.192;5.722;2023-07-28T03:49:07;3.75;;;1.60;;
13222;SDS011;6676;45.192;5.722;2023-07-28T03:51:58;2.60;;;1.50;;
13222;SDS011;6676;45.192;5.722;2023-07-28T03:54:50;5.75;;;1.47;;
13222;SDS011;6676;45.192;5.722;2023-07-28T03:57:41;2.55;;;1.45;;
13222;SDS011;6676;45.192;5.722;2023-07-28T04:00:33;5.30;;;1.47;;
13222;SDS011;6676;45.192;5.722;2023-07-28T04:03:24;2.85;;;1.20;;
13222;SDS011;6676;45.192;5.722;2023-07-28T04:06:15;3.70;;;1.42;;
13222;SDS011;6676;45.192;5.722;2023-07-28T04:09:07;1.82;;;1.12;;
13222;SDS011;6676;45.192;5.722;2023-07-28T04:11:58;2.67;;;1.45;;
13222;SDS011;6676;45.192;5.722;2023-07-28T04:14:50;4.15;;;1.80;;
13222;SDS011;6676;45.192;5.722;2023-07-28T04:17:42;3.30;;;1.60;;
13222;SDS011;6676;45.192;5.722;2023-07-28T04:20:35;3.75;;;1.52;;
13222;SDS011;6676;45.192;5.722;2023-07-28T04:23:26;2.00;;;1.40;;
13222;SDS011;6676;45.192;5.722;2023-07-28T04:26:19;2.25;;;1.40;;
13222;SDS011;6676;45.192;5.722;2023-07-28T04:29:12;3.42;;;1.60;;
13222;SDS011;6676;45.192;5.722;2023-07-28T04:32:04;1.75;;;1.32;;
13222;SDS011;6676;45.192;5.722;2023-07-28T04:34:57;2.37;;;1.20;;
13222;SDS011;6676;45.192;5.722;2023-07-28T04:37:50;2.87;;;1.65;;
13222;SDS011;6676;45.192;5.722;2023-07-28T04:40:59;3.75;;;1.32;;
13222;SDS011;6676;45.192;5.722;2023-07-28T04:43:58;1.50;;;1.40;;
13222;SDS011;6676;45.192;5.722;2023-07-28T04:46:51;3.10;;;1.55;;
13222;SDS011;6676;45.192;5.722;2023-07-28T04:49:43;5.72;;;1.52;;
13222;SDS011;6676;45.192;5.722;2023-07-28T04:52:44;3.42;;;1.55;;
13222;SDS011;6676;45.192;5.722;2023-07-28T04:55:54;3.22;;;1.55;;
13222;SDS011;6676;45.192;5.722;2023-07-28T04:58:45;2.65;;;1.67;;
13222;SDS011;6676;45.192;5.722;2023-07-28T05:01:37;3.10;;;1.70;;
13222;SDS011;6676;45.192;5.722;2023-07-28T05:04:29;3.27;;;1.75;;
13222;SDS011;6676;45.192;5.722;2023-07-28T05:07:21;3.47;;;1.85;;
13222;SDS011;6676;45.192;5.722;2023-07-28T05:10:12;3.05;;;1.82;;
13222;SDS011;6676;45.192;5.722;2023-07-28T05:13:05;3.37;;;1.75;;
13222;SDS011;6676;45.192;5.722;2023-07-28T05:15:57;7.20;;;2.02;;
13222;SDS011;6676;45.192;5.722;2023-07-28T05:19:03;5.12;;;2.15;;
13222;SDS011;6676;45.192;5.722;2023-07-28T05:22:14;4.03;;;2.12;;
13222;SDS011;6676;45.192;5.722;2023-07-28T05:25:07;3.92;;;2.20;;
13222;SDS011;6676;45.192;5.722;2023-07-28T05:28:01;2.95;;;1.98;;
13222;SDS011;6676;45.192;5.722;2023-07-28T05:30:53;4.78;;;2.40;;
13222;SDS011;6676;45.192;5.722;2023-07-28T05:33:46;2.52;;;1.70;;
13222;SDS011;6676;45.192;5.722;2023-07-28T05:36:38;4.08;;;2.08;;
13222;SDS011;6676;45.192;5.722;2023-07-28T05:39:29;3.30;;;1.98;;
13222;SDS011;6676;45.192;5.722;2023-07-28T05:42:21;3.50;;;2.00;;
13222;SDS011;6676;45.192;5.722;2023-07-28T05:47:51;8.30;;;2.05;;
13222;SDS011;6676;45.192;5.722;2023-07-28T05:50:42;4.15;;;2.50;;
13222;SDS011;6676;45.192;5.722;2023-07-28T05:53:34;3.70;;;2.08;;
13222;SDS011;6676;45.192;5.722;2023-07-28T05:56:27;3.80;;;1.98;;
13222;SDS011;6676;45.192;5.722;2023-07-28T05:59:18;3.83;;;1.95;;
13222;SDS011;6676;45.192;5.722;2023-07-28T06:02:10;4.60;;;1.92;;
13222;SDS011;6676;45.192;5.722;2023-07-28T06:05:03;4.15;;;2.05;;
13222;SDS011;6676;45.192;5.722;2023-07-28T06:07:55;2.50;;;2.30;;
13222;SDS011;6676;45.192;5.722;2023-07-28T06:10:46;3.12;;;2.15;;
13222;SDS011;6676;45.192;5.722;2023-07-28T06:13:37;3.72;;;2.15;;
13222;SDS011;6676;45.192;5.722;2023-07-28T06:16:29;3.67;;;2.00;;
13222;SDS011;6676;45.192;5.722;2023-07-28T06:19:20;4.67;;;1.95;;
13222;SDS011;6676;45.192;5.722;2023-07-28T06:22:13;2.77;;;2.30;;
13222;SDS011;6676;45.192;5.722;2023-07-28T06:25:06;6.17;;;2.42;;
13222;SDS011;6676;45.192;5.722;2023-07-28T06:27:58;7.08;;;2.22;;
13222;SDS011;6676;45.192;5.722;2023-07-28T06:30:53;3.72;;;2.05;;
13222;SDS011;6676;45.192;5.722;2023-07-28T06:33:47;4.90;;;2.40;;
13222;SDS011;6676;45.192;5.722;2023-07-28T06:36:38;2.83;;;1.87;;
13222;SDS011;6676;45.192;5.722;2023-07-28T06:39:30;3.10;;;2.20;;
13222;SDS011;6676;45.192;5.722;2023-07-28T06:42:21;3.30;;;2.02;;
13222;SDS011;6676;45.192;5.722;2023-07-28T06:45:14;3.17;;;1.77;;
13222;SDS011;6676;45.192;5.722;2023-07-28T06:48:06;2.65;;;1.90;;
13222;SDS011;6676;45.192;5.722;2023-07-28T06:50:57;3.62;;;1.90;;
13222;SDS011;6676;45.192;5.722;2023-07-28T06:53:48;4.28;;;1.92;;
13222;SDS011;6676;45.192;5.722;2023-07-28T06:56:39;3.40;;;2.17;;
13222;SDS011;6676;45.192;5.722;2023-07-28T06:59:32;4.60;;;2.12;;
13222;SDS011;6676;45.192;5.722;2023-07-28T07:02:24;5.28;;;2.08;;
13222;SDS011;6676;45.192;5.722;2023-07-28T07:05:16;3.75;;;2.40;;
13222;SDS011;6676;45.192;5.722;2023-07-28T07:08:07;3.65;;;2.10;;
13222;SDS011;6676;45.192;5.722;2023-07-28T07:10:59;4.40;;;2.30;;
13222;SDS011;6676;45.192;5.722;2023-07-28T07:13:50;3.22;;;2.00;;
13222;SDS011;6676;45.192;5.722;2023-07-28T07:16:41;5.45;;;2.40;;
13222;SDS011;6676;45.192;5.722;2023-07-28T07:19:33;3.85;;;1.90;;
13222;SDS011;6676;45.192;5.722;2023-07-28T07:22:26;3.85;;;2.42;;
13222;SDS011;6676;45.192;5.722;2023-07-28T07:25:18;4.33;;;2.30;;
13222;SDS011;6676;45.192;5.722;2023-07-28T07:28:09;5.53;;;2.58;;
13222;SDS011;6676;45.192;5.722;2023-07-28T07:31:00;3.20;;;2.58;;
13222;SDS011;6676;45.192;5.722;2023-07-28T07:33:51;2.98;;;2.15;;
13222;SDS011;6676;45.192;5.722;2023-07-28T07:36:43;4.37;;;2.72;;
13222;SDS011;6676;45.192;5.722;2023-07-28T07:39:35;4.30;;;2.37;;
13222;SDS011;6676;45.192;5.722;2023-07-28T07:42:28;3.40;;;2.42;;
13222;SDS011;6676;45.192;5.722;2023-07-28T07:45:20;4.17;;;2.83;;
13222;SDS011;6676;45.192;5.722;2023-07-28T07:48:12;4.22;;;2.30;;
13222;SDS011;6676;45.192;5.722;2023-07-28T07:51:04;3.58;;;2.50;;
13222;SDS011;6676;45.192;5.722;2023-07-28T07:53:57;3.58;;;2.45;;
13222;SDS011;6676;45.192;5.722;2023-07-28T07:56:50;3.72;;;1.82;;
13222;SDS011;6676;45.192;5.722;2023-07-28T07:59:47;3.90;;;2.27;;
13222;SDS011;6676;45.192;5.722;2023-07-28T08:02:40;4.40;;;2.50;;
13222;SDS011;6676;45.192;5.722;2023-07-28T08:05:34;4.62;;;2.90;;
13222;SDS011;6676;45.192;5.722;2023-07-28T08:08:29;5.42;;;2.33;;
13222;SDS011;6676;45.192;5.722;2023-07-28T08:11:22;3.65;;;2.47;;
13222;SDS011;6676;45.192;5.722;2023-07-28T08:16:58;2.70;;;2.20;;
13222;SDS011;6676;45.192;5.722;2023-07-28T08:19:49;3.33;;;1.92;;
13222;SDS011;6676;45.192;5.722;2023-07-28T08:22:41;7.25;;;2.33;;
13222;SDS011;6676;45.192;5.722;2023-07-28T08:25:32;2.92;;;1.80;;
13222;SDS011;6676;45.192;5.722;2023-07-28T08:28:23;2.77;;;1.85;;
13222;SDS011;6676;45.192;5.722;2023-07-28T08:31:14;1.80;;;1.40;;
13222;SDS011;6676;45.192;5.722;2023-07-28T08:34:08;1.80;;;1.37;;
13222;SDS011;6676;45.192;5.722;2023-07-28T08:36:59;3.20;;;1.60;;
13222;SDS011;6676;45.192;5.722;2023-07-28T08:39:50;2.22;;;1.67;;
13222;SDS011;6676;45.192;5.722;2023-07-28T08:42:42;2.30;;;1.77;;
13222;SDS011;6676;45.192;5.722;2023-07-28T08:45:35;2.80;;;1.70;;
13222;SDS011;6676;45.192;5.722;2023-07-28T08:48:27;2.40;;;2.00;;
13222;SDS011;6676;45.192;5.722;2023-07-28T08:51:18;3.55;;;2.10;;
13222;SDS011;6676;45.192;5.722;2023-07-28T08:54:13;4.87;;;1.98;;
13222;SDS011;6676;45.192;5.722;2023-07-28T08:57:06;3.55;;;1.85;;
13222;SDS011;6676;45.192;5.722;2023-07-28T08:59:58;3.37;;;1.80;;
13222;SDS011;6676;45.192;5.722;2023-07-28T09:02:51;2.37;;;1.70;;
13222;SDS011;6676;45.192;5.722;2023-07-28T09:05:43;2.22;;;1.75;;
13222;SDS011;6676;45.192;5.722;2023-07-28T09:08:35;2.95;;;2.00;;
13222;SDS011;6676;45.192;5.722;2023-07-28T09:11:27;3.27;;;1.67;;
13222;SDS011;6676;45.192;5.722;2023-07-28T09:14:21;2.20;;;1.90;;
13222;SDS011;6676;45.192;5.722;2023-07-28T09:17:13;2.37;;;1.70;;
13222;SDS011;6676;45.192;5.722;2023-07-28T09:20:06;3.33;;;1.90;;
13222;SDS011;6676;45.192;5.722;2023-07-28T09:23:00;4.45;;;1.92;;
13222;SDS011;6676;45.192;5.722;2023-07-28T09:25:53;4.75;;;1.95;;
13222;SDS011;6676;45.192;5.722;2023-07-28T09:28:51;2.42;;;1.67;;
13222;SDS011;6676;45.192;5.722;2023-07-28T09:31:43;2.60;;;1.85;;
13222;SDS011;6676;45.192;5.722;2023-07-28T09:34:35;2.60;;;2.02;;
13222;SDS011;6676;45.192;5.722;2023-07-28T09:37:26;7.22;;;1.85;;
13222;SDS011;6676;45.192;5.722;2023-07-28T09:40:17;2.60;;;1.80;;
13222;SDS011;6676;45.192;5.722;2023-07-28T09:43:09;2.12;;;1.57;;
13222;SDS011;6676;45.192;5.722;2023-07-28T09:46:04;3.05;;;1.40;;
13222;SDS011;6676;45.192;5.722;2023-07-28T09:48:57;1.95;;;1.60;;
13222;SDS011;6676;45.192;5.722;2023-07-28T09:51:50;2.27;;;1.77;;
13222;SDS011;6676;45.192;5.722;2023-07-28T09:54:44;3.27;;;1.35;;
13222;SDS011;6676;45.192;5.722;2023-07-28T09:57:43;2.55;;;1.80;;
13222;SDS011;6676;45.192;5.722;2023-07-28T10:00:35;2.33;;;1.70;;
13222;SDS011;6676;45.192;5.722;2023-07-28T10:03:27;2.05;;;1.50;;
13222;SDS011;6676;45.192;5.722;2023-07-28T10:06:20;2.30;;;1.90;;
13222;SDS011;6676;45.192;5.722;2023-07-28T10:09:11;2.83;;;1.80;;
13222;SDS011;6676;45.192;5.722;2023-07-28T10:12:04;3.52;;;1.95;;
13222;SDS011;6676;45.192;5.722;2023-07-28T10:15:01;1.92;;;1.72;;
13222;SDS011;6676;45.192;5.722;2023-07-28T10:17:55;2.92;;;2.12;;
13222;SDS011;6676;45.192;5.722;2023-07-28T10:20:48;2.60;;;1.98;;
13222;SDS011;6676;45.192;5.722;2023-07-28T10:23:40;2.65;;;2.10;;
13222;SDS011;6676;45.192;5.722;2023-07-28T10:26:32;2.55;;;2.12;;
13222;SDS011;6676;45.192;5.722;2023-07-28T10:29:30;2.27;;;1.90;;
13222;SDS011;6676;45.192;5.722;2023-07-28T10:32:27;3.58;;;1.87;;
13222;SDS011;6676;45.192;5.722;2023-07-28T10:35:23;2.20;;;1.95;;
13222;SDS011;6676;45.192;5.722;2023-07-28T10:38:30;2.42;;;1.87;;
13222;SDS011;6676;45.192;5.722;2023-07-28T10:41:23;2.08;;;1.67;;
13222;SDS011;6676;45.192;5.722;2023-07-28T10:44:18;2.98;;;1.92;;
13222;SDS011;6676;45.192;5.722;2023-07-28T10:47:09;4.20;;;1.92;;
13222;SDS011;6676;45.192;5.722;2023-07-28T10:50:03;2.33;;;1.87;;
13222;SDS011;6676;45.192;5.722;2023-07-28T10:52:55;1.95;;;1.80;;
13222;SDS011;6676;45.192;5.722;2023-07-28T10:55:46;4.90;;;2.00;;
13222;SDS011;6676;45.192;5.722;2023-07-28T10:58:38;2.30;;;2.10;;
13222;SDS011;6676;45.192;5.722;2023-07-28T11:01:32;3.77;;;1.65;;
13222;SDS011;6676;45.192;5.722;2023-07-28T11:04:25;2.75;;;2.00;;
13222;SDS011;6676;45.192;5.722;2023-07-28T11:07:16;3.05;;;1.90;;
13222;SDS011;6676;45.192;5.722;2023-07-28T11:10:08;2.98;;;1.77;;
13222;SDS011;6676;45.192;5.722;2023-07-28T11:13:01;2.75;;;1.87;;
13222;SDS011;6676;45.192;5.722;2023-07-28T11:15:57;2.80;;;1.92;;
13222;SDS011;6676;45.192;5.722;2023-07-28T11:18:50;4.12;;;1.80;;
13222;SDS011;6676;45.192;5.722;2023-07-28T11:21:43;2.55;;;2.10;;
13222;SDS011;6676;45.192;5.722;2023-07-28T11:24:36;2.60;;;1.70;;
13222;SDS011;6676;45.192;5.722;2023-07-28T11:27:28;2.12;;;1.67;;
13222;SDS011;6676;45.192;5.722;2023-07-28T11:30:19;2.45;;;1.92;;
13222;SDS011;6676;45.192;5.722;2023-07-28T11:33:11;2.17;;;1.80;;
13222;SDS011;6676;45.192;5.722;2023-07-28T11:36:04;2.37;;;1.92;;
13222;SDS011;6676;45.192;5.722;2023-07-28T11:38:55;3.08;;;1.87;;
13222;SDS011;6676;45.192;5.722;2023-07-28T11:41:49;2.95;;;2.00;;
13222;SDS011;6676;45.192;5.722;2023-07-28T11:44:43;3.17;;;1.70;;
13222;SDS011;6676;45.192;5.722;2023-07-28T11:47:35;6.62;;;2.00;;
13222;SDS011;6676;45.192;5.722;2023-07-28T11:50:28;3.10;;;2.12;;
13222;SDS011;6676;45.192;5.722;2023-07-28T11:53:21;3.02;;;1.90;;
13222;SDS011;6676;45.192;5.722;2023-07-28T11:56:14;2.77;;;2.05;;
13222;SDS011;6676;45.192;5.722;2023-07-28T11:59:05;2.25;;;1.40;;
13222;SDS011;6676;45.192;5.722;2023-07-28T12:01:57;3.02;;;1.75;;
13222;SDS011;6676;45.192;5.722;2023-07-28T12:04:51;2.25;;;1.70;;
13222;SDS011;6676;45.192;5.722;2023-07-28T12:07:47;1.75;;;1.62;;
13222;SDS011;6676;45.192;5.722;2023-07-28T12:10:49;3.83;;;1.72;;
13222;SDS011;6676;45.192;5.722;2023-07-28T12:13:49;2.10;;;1.70;;
13222;SDS011;6676;45.192;5.722;2023-07-28T12:16:47;2.70;;;1.57;;
13222;SDS011;6676;45.192;5.722;2023-07-28T12:19:41;4.28;;;1.82;;
13222;SDS011;6676;45.192;5.722;2023-07-28T12:22:33;3.45;;;1.50;;
13222;SDS011;6676;45.192;5.722;2023-07-28T12:25:25;2.35;;;1.67;;
13222;SDS011;6676;45.192;5.722;2023-07-28T12:28:36;4.37;;;1.57;;
13222;SDS011;6676;45.192;5.722;2023-07-28T12:31:29;2.02;;;1.52;;
13222;SDS011;6676;45.192;5.722;2023-07-28T12:34:25;3.72;;;1.87;;
13222;SDS011;6676;45.192;5.722;2023-07-28T12:37:19;1.92;;;1.72;;
13222;SDS011;6676;45.192;5.722;2023-07-28T12:40:12;1.70;;;1.60;;
13222;SDS011;6676;45.192;5.722;2023-07-28T12:46:37;2.83;;;1.50;;
13222;SDS011;6676;45.192;5.722;2023-07-28T12:49:32;1.90;;;1.65;;
13222;SDS011;6676;45.192;5.722;2023-07-28T12:52:47;2.33;;;1.50;;
13222;SDS011;6676;45.192;5.722;2023-07-28T12:56:00;2.95;;;1.80;;
13222;SDS011;6676;45.192;5.722;2023-07-28T12:58:54;1.90;;;1.70;;
13222;SDS011;6676;45.192;5.722;2023-07-28T13:01:50;2.75;;;1.72;;
13222;SDS011;6676;45.192;5.722;2023-07-28T13:07:59;3.10;;;2.00;;
13222;SDS011;6676;45.192;5.722;2023-07-28T13:11:11;2.25;;;1.80;;
13222;SDS011;6676;45.192;5.722;2023-07-28T13:14:04;3.77;;;1.82;;
13222;SDS011;6676;45.192;5.722;2023-07-28T13:16:58;2.77;;;1.65;;
13222;SDS011;6676;45.192;5.722;2023-07-28T13:20:27;2.65;;;2.10;;
13222;SDS011;6676;45.192;5.722;2023-07-28T13:23:20;3.25;;;1.62;;
13222;SDS011;6676;45.192;5.722;2023-07-28T13:26:30;4.53;;;1.92;;
13222;SDS011;6676;45.192;5.722;2023-07-28T13:33:31;3.37;;;1.70;;
13222;SDS011;6676;45.192;5.722;2023-07-28T13:36:23;2.25;;;1.72;;
13222;SDS011;6676;45.192;5.722;2023-07-28T13:39:34;2.22;;;1.82;;
13222;SDS011;6676;45.192;5.722;2023-07-28T13:42:28;2.15;;;1.95;;
13222;SDS011;6676;45.192;5.722;2023-07-28T13:45:19;3.77;;;1.98;;
13222;SDS011;6676;45.192;5.722;2023-07-28T13:48:13;2.30;;;1.77;;
13222;SDS011;6676;45.192;5.722;2023-07-28T13:51:07;2.95;;;1.95;;
13222;SDS011;6676;45.192;5.722;2023-07-28T13:54:21;4.33;;;2.30;;
13222;SDS011;6676;45.192;5.722;2023-07-28T13:57:15;1.90;;;1.80;;
13222;SDS011;6676;45.192;5.722;2023-07-28T14:00:08;3.08;;;1.87;;
13222;SDS011;6676;45.192;5.722;2023-07-28T14:03:03;2.98;;;2.00;;
13222;SDS011;6676;45.192;5.722;2023-07-28T14:05:56;2.47;;;2.05;;
13222;SDS011;6676;45.192;5.722;2023-07-28T14:09:04;5.67;;;1.90;;
13222;SDS011;6676;45.192;5.722;2023-07-28T14:11:59;2.22;;;1.82;;
13222;SDS011;6676;45.192;5.722;2023-07-28T14:15:09;2.55;;;2.10;;
13222;SDS011;6676;45.192;5.722;2023-07-28T14:18:04;2.40;;;1.92;;
13222;SDS011;6676;45.192;5.722;2023-07-28T14:20:58;2.40;;;2.05;;
13222;SDS011;6676;45.192;5.722;2023-07-28T14:23:51;3.22;;;2.12;;
13222;SDS011;6676;45.192;5.722;2023-07-28T14:26:44;2.05;;;1.87;;
13222;SDS011;6676;45.192;5.722;2023-07-28T14:29:37;2.02;;;1.90;;
13222;SDS011;6676;45.192;5.722;2023-07-28T14:32:47;3.02;;;2.22;;
13222;SDS011;6676;45.192;5.722;2023-07-28T14:35:50;2.37;;;2.10;;
13222;SDS011;6676;45.192;5.722;2023-07-28T14:38:44;2.35;;;1.95;;
13222;SDS011;6676;45.192;5.722;2023-07-28T14:41:51;2.42;;;2.05;;
13222;SDS011;6676;45.192;5.722;2023-07-28T14:44:44;2.30;;;1.90;;
13222;SDS011;6676;45.192;5.722;2023-07-28T14:47:37;3.65;;;2.12;;
13222;SDS011;6676;45.192;5.722;2023-07-28T14:50:32;4.40;;;2.40;;
13222;SDS011;6676;45.192;5.722;2023-07-28T14:53:28;5.20;;;2.10;;
13222;SDS011;6676;45.192;5.722;2023-07-28T14:56:21;3.70;;;1.90;;
13222;SDS011;6676;45.192;5.722;2023-07-28T14:59:17;3.67;;;1.92;;
13222;SDS011;6676;45.192;5.722;2023-07-28T15:02:29;2.70;;;1.87;;
13222;SDS011;6676;45.192;5.722;2023-07-28T15:05:22;3.45;;;2.00;;
13222;SDS011;6676;45.192;5.722;2023-07-28T15:08:14;3.87;;;2.45;;
13222;SDS011;6676;45.192;5.722;2023-07-28T15:11:07;2.72;;;2.08;;
13222;SDS011;6676;45.192;5.722;2023-07-28T15:14:00;2.83;;;2.10;;
13222;SDS011;6676;45.192;5.722;2023-07-28T15:16:57;3.30;;;2.08;;
13222;SDS011;6676;45.192;5.722;2023-07-28T15:19:50;2.35;;;2.15;;
13222;SDS011;6676;45.192;5.722;2023-07-28T15:22:42;2.55;;;2.12;;
13222;SDS011;6676;45.192;5.722;2023-07-28T15:25:36;2.55;;;2.02;;
13222;SDS011;6676;45.192;5.722;2023-07-28T15:28:31;2.40;;;2.08;;
13222;SDS011;6676;45.192;5.722;2023-07-28T15:31:23;3.33;;;1.82;;
13222;SDS011;6676;45.192;5.722;2023-07-28T15:34:15;2.55;;;2.10;;
13222;SDS011;6676;45.192;5.722;2023-07-28T15:37:07;3.25;;;2.12;;
13222;SDS011;6676;45.192;5.722;2023-07-28T15:40:03;3.42;;;2.50;;
13222;SDS011;6676;45.192;5.722;2023-07-28T15:42:58;2.92;;;2.17;;
13222;SDS011;6676;45.192;5.722;2023-07-28T15:45:51;3.00;;;2.00;;
13222;SDS011;6676;45.192;5.722;2023-07-28T15:48:44;3.35;;;2.35;;
13222;SDS011;6676;45.192;5.722;2023-07-28T15:51:36;4.15;;;1.90;;
13222;SDS011;6676;45.192;5.722;2023-07-28T15:54:30;2.35;;;2.08;;
13222;SDS011;6676;45.192;5.722;2023-07-28T15:57:23;2.67;;;2.00;;
13222;SDS011;6676;45.192;5.722;2023-07-28T16:00:17;3.85;;;2.20;;
13222;SDS011;6676;45.192;5.722;2023-07-28T16:03:10;3.52;;;2.15;;
13222;SDS011;6676;45.192;5.722;2023-07-28T16:06:05;3.33;;;2.37;;
13222;SDS011;6676;45.192;5.722;2023-07-28T16:08:56;3.08;;;2.00;;
13222;SDS011;6676;45.192;5.722;2023-07-28T16:11:49;3.50;;;2.15;;
13222;SDS011;6676;45.192;5.722;2023-07-28T16:14:40;3.08;;;2.27;;
13222;SDS011;6676;45.192;5.722;2023-07-28T16:17:32;2.33;;;2.12;;
13222;SDS011;6676;45.192;5.722;2023-07-28T16:20:23;2.77;;;2.17;;
13222;SDS011;6676;45.192;5.722;2023-07-28T16:23:15;2.90;;;1.92;;
13222;SDS011;6676;45.192;5.722;2023-07-28T16:26:07;2.15;;;1.95;;
13222;SDS011;6676;45.192;5.722;2023-07-28T16:28:58;2.00;;;1.80;;
13222;SDS011;6676;45.192;5.722;2023-07-28T16:31:49;3.25;;;2.30;;
13222;SDS011;6676;45.192;5.722;2023-07-28T16:34:41;3.83;;;2.20;;
13222;SDS011;6676;45.192;5.722;2023-07-28T16:37:33;3.22;;;2.08;;
13222;SDS011;6676;45.192;5.722;2023-07-28T16:40:24;2.58;;;2.15;;
13222;SDS011;6676;45.192;5.722;2023-07-28T16:43:15;2.55;;;2.12;;
13222;SDS011;6676;45.192;5.722;2023-07-28T16:46:07;2.52;;;2.20;;
13222;SDS011;6676;45.192;5.722;2023-07-28T16:49:00;4.28;;;2.00;;
13222;SDS011;6676;45.192;5.722;2023-07-28T16:51:51;2.83;;;2.17;;
13222;SDS011;6676;45.192;5.722;2023-07-28T16:54:43;3.12;;;2.45;;
13222;SDS011;6676;45.192;5.722;2023-07-28T16:57:34;2.77;;;2.33;;
13222;SDS011;6676;45.192;5.722;2023-07-28T17:00:26;3.10;;;2.47;;
13222;SDS011;6676;45.192;5.722;2023-07-28T17:03:17;2.40;;;1.95;;
13222;SDS011;6676;45.192;5.722;2023-07-28T17:06:09;4.22;;;2.17;;
13222;SDS011;6676;45.192;5.722;2023-07-28T17:09:01;3.80;;;2.40;;
13222;SDS011;6676;45.192;5.722;2023-07-28T17:11:53;3.75;;;2.70;;
13222;SDS011;6676;45.192;5.722;2023-07-28T17:14:47;5.20;;;2.60;;
13222;SDS011;6676;45.192;5.722;2023-07-28T17:17:38;2.95;;;2.45;;
13222;SDS011;6676;45.192;5.722;2023-07-28T17:20:29;6.95;;;2.90;;
13222;SDS011;6676;45.192;5.722;2023-07-28T17:23:21;5.78;;;3.83;;
13222;SDS011;6676;45.192;5.722;2023-07-28T17:26:12;4.28;;;3.83;;
13222;SDS011;6676;45.192;5.722;2023-07-28T17:29:03;3.72;;;3.20;;
13222;SDS011;6676;45.192;5.722;2023-07-28T17:31:54;4.65;;;4.03;;
13222;SDS011;6676;45.192;5.722;2023-07-28T17:34:45;4.15;;;3.52;;
13222;SDS011;6676;45.192;5.722;2023-07-28T17:37:37;6.15;;;3.42;;
13222;SDS011;6676;45.192;5.722;2023-07-28T17:40:28;6.20;;;3.37;;
13222;SDS011;6676;45.192;5.722;2023-07-28T17:43:19;6.92;;;2.92;;
13222;SDS011;6676;45.192;5.722;2023-07-28T17:46:10;4.85;;;3.17;;
13222;SDS011;6676;45.192;5.722;2023-07-28T17:49:01;3.25;;;2.83;;
13222;SDS011;6676;45.192;5.722;2023-07-28T17:51:53;4.55;;;2.85;;
13222;SDS011;6676;45.192;5.722;2023-07-28T17:54:44;5.53;;;3.15;;
13222;SDS011;6676;45.192;5.722;2023-07-28T17:57:35;2.95;;;2.65;;